Time;durP1;ratioP1;P1;durP2;ratioP2;P2;SDS_P1;SDS_P2;PMS_P1;PMS_P2;Temp;Humidity;BMP_temperature;BMP_pressure;BME280_temperature;BME280_humidity;BME280_pressure;Samples;Min_cycle;Max_cycle;Signal;HPM_P1;HPM_P2
2022/06/14 00:00:53;;;;;;;;;;;13.90;99.90;;;;;;5063445;28;19920;-73
2022/06/14 00:02:22;;;;;;;;;;;13.90;99.90;;;;;;5053243;28;20056;-73
2022/06/14 00:04:48;;;;;;;;;;;13.90;99.90;;;;;;5063615;28;19967;-72
2022/06/14 00:07:15;;;;;;;;;;;13.90;99.90;;;;;;5059024;28;20204;-73
2022/06/14 00:09:42;;;;;;;;;;;13.80;99.90;;;;;;5063492;28;20191;-72
2022/06/14 00:12:08;;;;;;;;;;;13.80;99.90;;;;;;5063191;28;20136;-73
2022/06/14 00:14:35;;;;;;;;;;;13.80;99.90;;;;;;5049948;28;19979;-73
2022/06/14 00:17:02;;;;;;;;;;;13.70;99.90;;;;;;5063075;28;19952;-72
2022/06/14 00:19:30;;;;;;;;;;;13.70;99.90;;;;;;5057260;28;20227;-72
2022/06/14 00:22:01;;;;;;;;;;;13.70;99.90;;;;;;5063279;28;20113;-72
2022/06/14 00:24:28;;;;;;;;;;;13.70;99.90;;;;;;5061142;28;19921;-72
2022/06/14 00:26:55;;;;;;;;;;;13.70;99.90;;;;;;5061524;28;21140;-73
2022/06/14 00:29:22;;;;;;;;;;;13.60;99.90;;;;;;5063015;28;19956;-73
2022/06/14 00:31:48;;;;;;;;;;;13.60;99.90;;;;;;5060480;28;19963;-72
2022/06/14 00:34:15;;;;;;;;;;;13.60;99.90;;;;;;5063132;28;19963;-72
2022/06/14 00:36:50;;;;;;;;;;;13.60;99.90;;;;;;5062159;28;19956;-73
2022/06/14 00:39:17;;;;;;;;;;;13.50;99.90;;;;;;5062746;28;19921;-73
2022/06/14 00:41:44;;;;;;;;;;;13.50;99.90;;;;;;5062755;28;19968;-72
2022/06/14 00:44:14;;;;;;;;;;;13.40;99.90;;;;;;5062634;28;20227;-73
2022/06/14 00:46:44;;;;;;;;;;;13.40;99.90;;;;;;5062164;28;19920;-73
2022/06/14 00:49:14;;;;;;;;;;;13.40;99.90;;;;;;5050055;28;19957;-72
2022/06/14 00:51:47;;;;;;;;;;;13.40;99.90;;;;;;5042755;28;19971;-73
2022/06/14 00:54:15;;;;;;;;;;;13.40;99.90;;;;;;5052037;28;20248;-73
2022/06/14 00:56:45;;;;;;;;;;;13.40;99.90;;;;;;5061876;28;19956;-73
2022/06/14 00:59:16;;;;;;;;;;;13.40;99.90;;;;;;5062833;28;19956;-73
2022/06/14 01:01:43;;;;;;;;;;;13.40;99.90;;;;;;5058135;28;19927;-72
2022/06/14 01:04:12;;;;;;;;;;;13.40;99.90;;;;;;5058249;28;19952;-73
2022/06/14 01:06:43;;;;;;;;;;;13.40;99.90;;;;;;5053935;28;19921;-73
2022/06/14 01:09:13;;;;;;;;;;;13.30;99.90;;;;;;5062589;28;19921;-73
2022/06/14 01:11:42;;;;;;;;;;;13.30;99.90;;;;;;5061146;28;20182;-73
2022/06/14 01:14:10;;;;;;;;;;;13.30;99.90;;;;;;5062519;28;20238;-73
2022/06/14 01:16:37;;;;;;;;;;;13.30;99.90;;;;;;5061522;28;20133;-73
2022/06/14 01:19:05;;;;;;;;;;;13.20;99.90;;;;;;5046264;28;19952;-72
2022/06/14 01:21:32;;;;;;;;;;;13.20;99.90;;;;;;5063031;28;19984;-73
2022/06/14 01:24:00;;;;;;;;;;;13.10;99.90;;;;;;5062314;28;19963;-72
2022/06/14 01:26:27;;;;;;;;;;;13.10;99.90;;;;;;5061689;28;19979;-73
2022/06/14 01:28:55;;;;;;;;;;;13.10;99.90;;;;;;5062020;28;19959;-73
2022/06/14 01:31:23;;;;;;;;;;;13.10;99.90;;;;;;5062080;28;20212;-73
2022/06/14 01:33:51;;;;;;;;;;;13.10;99.90;;;;;;5042950;28;19928;-73
2022/06/14 01:36:21;;;;;;;;;;;13.00;99.90;;;;;;5053647;28;20416;-73
2022/06/14 01:38:48;;;;;;;;;;;12.90;99.90;;;;;;5065238;28;20172;-73
2022/06/14 01:41:24;;;;;;;;;;;12.80;99.90;;;;;;5057355;28;19957;-73
2022/06/14 01:43:56;;;;;;;;;;;12.80;99.90;;;;;;5054295;28;19964;-73
2022/06/14 01:46:24;;;;;;;;;;;12.80;99.90;;;;;;5065574;28;19956;-73
2022/06/14 01:48:52;;;;;;;;;;;12.70;99.90;;;;;;5065891;28;19928;-72
2022/06/14 01:54:13;;;;;;;;;;;12.60;99.90;;;;;;5059695;28;19939;-73
2022/06/14 01:56:42;;;;;;;;;;;12.60;99.90;;;;;;5057114;28;19952;-73
2022/06/14 01:59:12;;;;;;;;;;;12.60;99.90;;;;;;5063837;28;19950;-73
2022/06/14 02:01:43;;;;;;;;;;;12.50;99.90;;;;;;5063308;28;19955;-72
2022/06/14 02:07:02;;;;;;;;;;;12.40;99.90;;;;;;5059255;28;20128;-73
2022/06/14 02:09:33;;;;;;;;;;;12.40;99.90;;;;;;5065748;28;19963;-73
2022/06/14 02:12:01;;;;;;;;;;;12.40;99.90;;;;;;5053987;28;20224;-73
2022/06/14 02:14:32;;;;;;;;;;;12.30;99.90;;;;;;5065438;28;20189;-73
2022/06/14 02:17:02;;;;;;;;;;;12.30;99.90;;;;;;5064428;28;20258;-73
2022/06/14 02:19:32;;;;;;;;;;;12.20;99.90;;;;;;5060308;28;19952;-73
2022/06/14 02:22:02;;;;;;;;;;;12.20;99.90;;;;;;5065324;28;20183;-72
2022/06/14 02:24:31;;;;;;;;;;;12.20;99.90;;;;;;5052662;28;19956;-71
2022/06/14 02:27:01;;;;;;;;;;;12.20;99.90;;;;;;5064706;28;19928;-72
2022/06/14 02:29:30;;;;;;;;;;;12.20;99.90;;;;;;5052054;28;19921;-73
2022/06/14 02:31:59;;;;;;;;;;;12.20;99.90;;;;;;5056056;28;19952;-73
2022/06/14 02:34:28;;;;;;;;;;;12.20;99.90;;;;;;5049699;28;20236;-72
2022/06/14 02:36:58;;;;;;;;;;;12.20;99.90;;;;;;5064508;28;19920;-73
2022/06/14 02:39:25;;;;;;;;;;;12.20;99.90;;;;;;5065033;28;19995;-72
2022/06/14 02:41:56;;;;;;;;;;;12.10;99.90;;;;;;5046681;28;19928;-73
2022/06/14 02:44:24;;;;;;;;;;;12.10;99.90;;;;;;5051911;28;19948;-73
2022/06/14 02:46:54;;;;;;;;;;;12.10;99.90;;;;;;5053802;28;19960;-73
2022/06/14 02:49:24;;;;;;;;;;;12.10;99.90;;;;;;5054983;28;19921;-73
2022/06/14 02:51:52;;;;;;;;;;;12.10;99.90;;;;;;5063503;28;19929;-73
2022/06/14 02:54:21;;;;;;;;;;;12.00;99.90;;;;;;5054866;28;19953;-73
2022/06/14 02:56:49;;;;;;;;;;;12.00;99.90;;;;;;5060883;28;19955;-73
2022/06/14 02:59:19;;;;;;;;;;;12.00;99.90;;;;;;5060436;28;19974;-72
2022/06/14 03:01:47;;;;;;;;;;;11.90;99.90;;;;;;5062728;28;19927;-73
2022/06/14 03:04:18;;;;;;;;;;;11.90;99.90;;;;;;5048597;28;19927;-73
2022/06/14 03:06:50;;;;;;;;;;;11.90;99.90;;;;;;5058806;28;19956;-73
2022/06/14 03:09:18;;;;;;;;;;;11.80;99.90;;;;;;5064314;28;19959;-73
2022/06/14 03:11:48;;;;;;;;;;;11.90;99.90;;;;;;5064766;28;19948;-73
2022/06/14 03:14:21;;;;;;;;;;;11.80;99.90;;;;;;5059056;28;20159;-72
2022/06/14 03:16:53;;;;;;;;;;;11.80;99.90;;;;;;5063624;28;19992;-73
2022/06/14 03:19:24;;;;;;;;;;;11.80;99.90;;;;;;5056021;28;19948;-73
2022/06/14 03:21:53;;;;;;;;;;;11.80;99.90;;;;;;5053022;28;20004;-73
2022/06/14 03:24:22;;;;;;;;;;;11.70;99.90;;;;;;5062079;28;20243;-73
2022/06/14 03:26:55;;;;;;;;;;;11.70;99.90;;;;;;5059655;28;19971;-72
2022/06/14 03:29:23;;;;;;;;;;;11.70;99.90;;;;;;5062590;28;19925;-72
2022/06/14 03:31:53;;;;;;;;;;;11.70;99.90;;;;;;5063906;28;19988;-73
2022/06/14 03:34:21;;;;;;;;;;;11.70;99.90;;;;;;5060179;28;19952;-72
2022/06/14 03:36:51;;;;;;;;;;;11.70;99.90;;;;;;5063117;28;19947;-73
2022/06/14 03:39:19;;;;;;;;;;;11.70;99.90;;;;;;5064284;28;19952;-72
2022/06/14 03:41:48;;;;;;;;;;;11.70;99.90;;;;;;5043894;28;19921;-73
2022/06/14 03:44:16;;;;;;;;;;;11.70;99.90;;;;;;5043770;28;19952;-70
2022/06/14 03:46:43;;;;;;;;;;;11.80;99.90;;;;;;5062997;28;19960;-73
2022/06/14 03:49:12;;;;;;;;;;;11.80;99.90;;;;;;5063426;28;20090;-72
2022/06/14 03:51:49;;;;;;;;;;;11.80;99.90;;;;;;5063473;28;19920;-73
2022/06/14 03:54:23;;;;;;;;;;;11.80;99.90;;;;;;5052286;28;20172;-72
2022/06/14 03:56:58;;;;;;;;;;;11.80;99.90;;;;;;5059561;28;19987;-72
2022/06/14 03:59:28;;;;;;;;;;;11.80;99.90;;;;;;5043690;28;19952;-73
2022/06/14 04:01:59;;;;;;;;;;;11.80;99.90;;;;;;5058821;28;19966;-72
2022/06/14 04:04:34;;;;;;;;;;;11.70;99.90;;;;;;5043409;28;20220;-73
2022/06/14 04:07:05;;;;;;;;;;;11.70;99.90;;;;;;5062529;28;19988;-72
2022/06/14 04:09:41;;;;;;;;;;;11.70;99.90;;;;;;5048012;28;19968;-72
2022/06/14 04:12:13;;;;;;;;;;;11.70;99.90;;;;;;5044726;28;19928;-73
2022/06/14 04:14:43;;;;;;;;;;;11.70;99.90;;;;;;5062403;28;19925;-72
2022/06/14 04:17:16;;;;;;;;;;;11.70;99.90;;;;;;5062887;28;19952;-73
2022/06/14 04:19:51;;;;;;;;;;;11.70;99.90;;;;;;5062905;28;19933;-73
2022/06/14 04:22:21;;;;;;;;;;;11.80;99.90;;;;;;5063499;28;19928;-73
2022/06/14 04:24:53;;;;;;;;;;;11.80;99.90;;;;;;5062999;28;19959;-73
2022/06/14 04:27:22;;;;;;;;;;;11.80;99.90;;;;;;5049852;28;20181;-73
2022/06/14 04:29:51;;;;;;;;;;;11.90;99.90;;;;;;5052940;28;20280;-72
2022/06/14 04:32:21;;;;;;;;;;;11.90;99.90;;;;;;5062277;28;19955;-72
2022/06/14 04:34:49;;;;;;;;;;;11.90;99.90;;;;;;5062618;28;19920;-73
2022/06/14 04:37:19;;;;;;;;;;;11.90;99.90;;;;;;5062618;28;20250;-73
2022/06/14 04:39:48;;;;;;;;;;;11.90;99.90;;;;;;5062556;28;19959;-73
2022/06/14 04:42:18;;;;;;;;;;;11.90;99.90;;;;;;5062842;28;19927;-73
2022/06/14 04:44:46;;;;;;;;;;;12.00;99.90;;;;;;5052845;28;20205;-72
2022/06/14 04:47:15;;;;;;;;;;;12.00;99.90;;;;;;5062453;28;19948;-73
2022/06/14 04:49:44;;;;;;;;;;;12.10;99.90;;;;;;5062743;28;19921;-72
2022/06/14 04:52:13;;;;;;;;;;;12.10;99.90;;;;;;5058442;28;19921;-72
2022/06/14 04:54:41;;;;;;;;;;;12.30;99.90;;;;;;5047448;28;19921;-71
2022/06/14 04:57:11;;;;;;;;;;;12.40;99.90;;;;;;5059721;28;19920;-73
2022/06/14 04:59:42;;;;;;;;;;;12.50;99.90;;;;;;5063297;28;20284;-71
2022/06/14 05:02:11;;;;;;;;;;;12.50;99.90;;;;;;5061900;28;20259;-70
2022/06/14 05:04:41;;;;;;;;;;;12.60;99.90;;;;;;5063233;28;19987;-71
2022/06/14 05:07:11;;;;;;;;;;;12.60;99.90;;;;;;5062862;28;20250;-72
2022/06/14 05:09:41;;;;;;;;;;;12.70;99.90;;;;;;5063516;28;19962;-72
2022/06/14 05:12:12;;;;;;;;;;;12.70;99.90;;;;;;5063050;28;19929;-72
2022/06/14 05:14:43;;;;;;;;;;;12.80;99.90;;;;;;5067069;28;19952;-72
2022/06/14 05:17:12;;;;;;;;;;;12.90;99.90;;;;;;5066543;28;19988;-72
2022/06/14 05:19:43;;;;;;;;;;;13.00;99.90;;;;;;5064347;28;19952;-72
2022/06/14 05:22:12;;;;;;;;;;;13.00;99.90;;;;;;5067251;28;19995;-72
2022/06/14 05:24:40;;;;;;;;;;;13.20;99.90;;;;;;5067154;28;19928;-72
2022/06/14 05:27:21;;;;;;;;;;;13.30;99.90;;;;;;5066137;28;19921;-71
2022/06/14 05:29:56;;;;;;;;;;;13.40;99.90;;;;;;5064660;28;20180;-72
2022/06/14 05:32:28;;;;;;;;;;;13.50;99.90;;;;;;5066723;28;20235;-72
2022/06/14 05:35:02;;;;;;;;;;;13.60;99.90;;;;;;5066771;28;19944;-71
2022/06/14 05:37:35;;;;;;;;;;;13.70;99.90;;;;;;5066056;28;20224;-72
2022/06/14 05:40:06;;;;;;;;;;;13.80;99.90;;;;;;5067008;28;19921;-72
2022/06/14 05:42:36;;;;;;;;;;;13.90;99.90;;;;;;5066801;28;19921;-71
2022/06/14 05:45:04;;;;;;;;;;;14.00;99.90;;;;;;5081578;23;19944;-89
2022/06/14 05:47:36;;;;;;;;;;;14.20;99.90;;;;;;5057288;28;19921;-90
2022/06/14 05:50:06;;;;;;;;;;;14.40;99.90;;;;;;5089977;22;19920;-68
2022/06/14 05:52:35;;;;;;;;;;;14.50;99.90;;;;;;5086355;28;19921;-68
2022/06/14 05:55:03;;;;;;;;;;;14.80;99.90;;;;;;5080902;28;20219;-68
2022/06/14 05:57:32;;;;;;;;;;;15.00;99.90;;;;;;5079584;28;19920;-69
2022/06/14 06:00:01;;;;;;;;;;;15.10;99.90;;;;;;5065042;28;19928;-69
2022/06/14 06:02:32;;;;;;;;;;;15.30;99.90;;;;;;5066136;28;19920;-69
2022/06/14 06:05:02;;;;;;;;;;;15.40;99.90;;;;;;5082089;28;20246;-69
2022/06/14 06:07:32;;;;;;;;;;;15.50;99.90;;;;;;5085350;28;20250;-69
2022/06/14 06:10:01;;;;;;;;;;;15.60;99.90;;;;;;5085692;28;19956;-69
2022/06/14 06:12:29;;;;;;;;;;;15.70;99.90;;;;;;5085797;28;19920;-69
2022/06/14 06:14:58;;;;;;;;;;;15.80;99.90;;;;;;5085796;28;19920;-69
2022/06/14 06:17:29;;;;;;;;;;;15.90;99.90;;;;;;5085002;28;20115;-69
2022/06/14 06:20:01;;;;;;;;;;;15.90;99.90;;;;;;5085810;28;19927;-68
2022/06/14 06:22:32;;;;;;;;;;;16.00;99.90;;;;;;5085465;28;19927;-68
2022/06/14 06:25:00;;;;;;;;;;;16.10;99.90;;;;;;5083901;28;19955;-69
2022/06/14 06:27:28;;;;;;;;;;;16.20;99.90;;;;;;5085382;28;19958;-69
2022/06/14 06:29:56;;;;;;;;;;;16.10;99.90;;;;;;5085436;28;19959;-69
2022/06/14 06:32:25;;;;;;;;;;;16.20;99.90;;;;;;5085470;28;19987;-69
2022/06/14 06:34:52;;;;;;;;;;;16.20;99.90;;;;;;5085072;28;19920;-69
2022/06/14 06:37:24;;;;;;;;;;;16.30;99.90;;;;;;5084661;28;19920;-68
2022/06/14 06:39:52;;;;;;;;;;;16.30;99.90;;;;;;5085556;28;19947;-69
2022/06/14 06:42:21;;;;;;;;;;;16.40;99.90;;;;;;5085378;28;19920;-69
2022/06/14 06:44:51;;;;;;;;;;;16.50;99.90;;;;;;5084828;28;19943;-69
2022/06/14 06:47:21;;;;;;;;;;;16.50;99.90;;;;;;5084850;28;19921;-69
2022/06/14 06:49:54;;;;;;;;;;;16.60;99.90;;;;;;5064955;28;19961;-69
2022/06/14 06:52:25;;;;;;;;;;;16.60;99.90;;;;;;5070412;28;19929;-69
2022/06/14 06:54:55;;;;;;;;;;;16.60;99.90;;;;;;5071418;28;19956;-69
2022/06/14 06:57:25;;;;;;;;;;;16.70;99.90;;;;;;5084355;28;19948;-69
2022/06/14 06:59:52;;;;;;;;;;;16.70;99.90;;;;;;5083728;28;19959;-69
2022/06/14 07:02:21;;;;;;;;;;;16.90;99.90;;;;;;5083829;28;19954;-69
2022/06/14 07:05:06;;;;;;;;;;;16.90;99.90;;;;;;5084599;28;19927;-69
2022/06/14 07:07:38;;;;;;;;;;;16.90;99.90;;;;;;5084370;28;19928;-69
2022/06/14 07:10:07;;;;;;;;;;;17.00;99.90;;;;;;5084675;28;20003;-69
2022/06/14 07:12:38;;;;;;;;;;;17.00;99.90;;;;;;5084451;28;19955;-69
2022/06/14 07:15:06;;;;;;;;;;;17.10;99.90;;;;;;5084772;28;19967;-69
2022/06/14 07:17:35;;;;;;;;;;;17.10;99.90;;;;;;5084152;28;19928;-69
2022/06/14 07:20:03;;;;;;;;;;;17.20;99.90;;;;;;5084665;28;19988;-68
2022/06/14 07:22:33;;;;;;;;;;;17.30;99.90;;;;;;5084429;28;20267;-69
2022/06/14 07:25:03;;;;;;;;;;;17.30;99.90;;;;;;5084172;28;20126;-69
2022/06/14 07:27:32;;;;;;;;;;;17.30;99.90;;;;;;5083815;28;19959;-69
2022/06/14 07:30:02;;;;;;;;;;;17.40;99.90;;;;;;5084405;28;19951;-69
2022/06/14 07:32:32;;;;;;;;;;;17.50;99.90;;;;;;5084555;28;20262;-69
2022/06/14 07:35:00;;;;;;;;;;;17.50;99.90;;;;;;5084086;28;20264;-69
2022/06/14 07:37:32;;;;;;;;;;;17.50;99.90;;;;;;5083609;28;20151;-70
2022/06/14 07:40:02;;;;;;;;;;;17.50;99.90;;;;;;5084396;28;19962;-68
2022/06/14 07:42:34;;;;;;;;;;;17.60;99.90;;;;;;5084278;28;19924;-68
2022/06/14 07:45:04;;;;;;;;;;;17.60;99.90;;;;;;5084430;28;19920;-70
2022/06/14 07:47:32;;;;;;;;;;;17.60;99.90;;;;;;5083598;28;19927;-70
2022/06/14 07:50:04;;;;;;;;;;;17.60;99.90;;;;;;5083956;28;19921;-70
2022/06/14 07:52:33;;;;;;;;;;;17.70;99.90;;;;;;5083771;28;19952;-70
2022/06/14 07:55:04;;;;;;;;;;;17.80;99.90;;;;;;5075345;28;19956;-70
2022/06/14 07:57:33;;;;;;;;;;;17.80;99.90;;;;;;5071643;28;19952;-70
2022/06/14 08:01:07;;;;;;;;;;;17.80;99.90;;;;;;5070079;28;19966;-70
2022/06/14 08:02:51;;;;;;;;;;;17.80;99.90;;;;;;5083360;28;20008;-70
2022/06/14 08:05:20;;;;;;;;;;;17.90;99.90;;;;;;5077689;28;19959;-70
2022/06/14 08:07:49;;;;;;;;;;;18.00;99.90;;;;;;5076839;28;19948;-70
2022/06/14 08:10:17;;;;;;;;;;;17.90;99.90;;;;;;5070709;28;19927;-70
2022/06/14 08:12:47;;;;;;;;;;;18.00;99.90;;;;;;5072690;28;19935;-70
2022/06/14 08:15:15;;;;;;;;;;;18.00;99.90;;;;;;5071368;28;20257;-69
2022/06/14 08:17:45;;;;;;;;;;;18.10;99.90;;;;;;5076995;28;19952;-70
2022/06/14 08:20:16;;;;;;;;;;;18.20;99.90;;;;;;5077561;28;19920;-69
2022/06/14 08:22:46;;;;;;;;;;;18.20;99.90;;;;;;5077090;28;19943;-69
2022/06/14 08:25:15;;;;;;;;;;;18.20;99.90;;;;;;5078044;28;19920;-69
2022/06/14 08:27:44;;;;;;;;;;;18.40;99.90;;;;;;5081198;28;19927;-69
2022/06/14 08:30:15;;;;;;;;;;;18.50;99.90;;;;;;5074586;28;19920;-69
2022/06/14 08:32:46;;;;;;;;;;;18.60;99.90;;;;;;5083873;28;19966;-68
2022/06/14 08:35:16;;;;;;;;;;;18.60;99.90;;;;;;5082876;28;19967;-69
2022/06/14 08:37:45;;;;;;;;;;;18.60;99.90;;;;;;5069101;28;19956;-69
2022/06/14 08:40:17;;;;;;;;;;;18.70;99.90;;;;;;5071676;28;19927;-69
2022/06/14 08:42:46;;;;;;;;;;;18.60;99.90;;;;;;5071814;28;19932;-69
2022/06/14 08:45:15;;;;;;;;;;;18.60;99.90;;;;;;5078030;28;20004;-69
2022/06/14 08:47:52;;;;;;;;;;;18.70;99.90;;;;;;5073710;28;19927;-69
2022/06/14 08:50:23;;;;;;;;;;;18.70;99.90;;;;;;5078087;28;19987;-69
2022/06/14 08:53:11;;;;;;;;;;;18.70;99.90;;;;;;5077817;28;19928;-69
2022/06/14 08:55:46;;;;;;;;;;;18.80;99.90;;;;;;5077053;28;19952;-69
2022/06/14 08:58:21;;;;;;;;;;;18.90;99.90;;;;;;5077797;28;19927;-69
2022/06/14 09:00:57;;;;;;;;;;;19.00;99.90;;;;;;5084997;28;19939;-70
2022/06/14 09:03:33;;;;;;;;;;;19.10;99.90;;;;;;5089806;28;20119;-68
2022/06/14 09:06:19;;;;;;;;;;;19.10;99.90;;;;;;5079397;28;19927;-69
2022/06/14 09:08:59;;;;;;;;;;;19.10;99.90;;;;;;5075594;28;19920;-68
2022/06/14 09:11:44;;;;;;;;;;;19.30;99.90;;;;;;5085429;28;19943;-68
2022/06/14 09:14:28;;;;;;;;;;;19.30;99.90;;;;;;5074574;28;19927;-68
2022/06/14 09:17:03;;;;;;;;;;;19.40;99.90;;;;;;5027646;28;19948;-68
2022/06/14 09:19:42;;;;;;;;;;;19.60;99.90;;;;;;5070133;28;19992;-68
2022/06/14 09:22:10;;;;;;;;;;;19.70;99.90;;;;;;5077018;28;20204;-69
2022/06/14 09:24:58;;;;;;;;;;;19.70;99.90;;;;;;5082077;28;20212;-68
2022/06/14 09:27:42;;;;;;;;;;;19.80;99.90;;;;;;5067682;28;19921;-68
2022/06/14 09:30:20;;;;;;;;;;;20.00;99.90;;;;;;5064354;28;19942;-68
2022/06/14 09:33:17;;;;;;;;;;;20.00;99.90;;;;;;5079803;28;19927;-68
2022/06/14 09:36:04;;;;;;;;;;;20.10;99.90;;;;;;5017189;28;19929;-69
2022/06/14 09:38:55;;;;;;;;;;;20.20;99.90;;;;;;5061076;28;19992;-70
2022/06/14 09:41:30;;;;;;;;;;;20.30;99.90;;;;;;5070730;28;19920;-66
2022/06/14 09:44:10;;;;;;;;;;;20.40;99.90;;;;;;5084331;28;20000;-69
2022/06/14 09:46:54;;;;;;;;;;;20.50;99.90;;;;;;5071936;28;19921;-69
2022/06/14 09:49:29;;;;;;;;;;;20.60;99.90;;;;;;5079473;28;19954;-69
2022/06/14 09:52:16;;;;;;;;;;;20.60;99.90;;;;;;5081549;28;19967;-69
2022/06/14 09:54:54;;;;;;;;;;;20.70;99.90;;;;;;5088854;28;19983;-69
2022/06/14 09:57:29;;;;;;;;;;;20.70;99.90;;;;;;5087417;28;19924;-69
2022/06/14 10:00:16;;;;;;;;;;;20.80;99.90;;;;;;5074948;28;19944;-69
2022/06/14 10:02:53;;;;;;;;;;;20.90;99.90;;;;;;5064682;28;19928;-69
2022/06/14 10:05:27;;;;;;;;;;;21.00;99.90;;;;;;5077252;28;19921;-68
2022/06/14 10:08:10;;;;;;;;;;;21.10;99.90;;;;;;5082210;28;19955;-69
2022/06/14 10:10:46;;;;;;;;;;;21.10;99.90;;;;;;5067038;28;19949;-69
2022/06/14 10:13:35;;;;;;;;;;;21.30;99.90;;;;;;5071008;28;20105;-68
2022/06/14 10:16:05;;;;;;;;;;;21.30;99.90;;;;;;5083136;28;19987;-69
2022/06/14 10:18:40;;;;;;;;;;;21.40;99.90;;;;;;5086166;28;19948;-69
2022/06/14 10:21:11;;;;;;;;;;;21.60;99.90;;;;;;5077588;28;19955;-69
2022/06/14 10:23:52;;;;;;;;;;;21.70;99.90;;;;;;5065581;28;19951;-69
2022/06/14 10:29:21;;;;;;;;;;;21.90;99.90;;;;;;5078240;28;19923;-69
2022/06/14 10:31:58;;;;;;;;;;;22.00;99.90;;;;;;5078304;28;19948;-68
2022/06/14 10:34:29;;;;;;;;;;;22.10;99.80;;;;;;5083074;28;20218;-68
2022/06/14 10:37:12;;;;;;;;;;;22.10;98.70;;;;;;5077887;28;19983;-70
2022/06/14 10:40:02;;;;;;;;;;;22.10;99.30;;;;;;5074761;28;19948;-70
2022/06/14 10:42:30;;;;;;;;;;;22.30;98.90;;;;;;5073943;28;19960;-70
2022/06/14 10:45:01;;;;;;;;;;;22.40;98.90;;;;;;5077702;28;19963;-69
2022/06/14 10:47:34;;;;;;;;;;;22.40;97.50;;;;;;5080057;28;19934;-69
2022/06/14 10:50:17;;;;;;;;;;;22.60;99.00;;;;;;5077462;28;19952;-70
2022/06/14 10:52:46;;;;;;;;;;;22.70;98.30;;;;;;5074918;28;19920;-69
2022/06/14 10:55:37;;;;;;;;;;;22.90;98.50;;;;;;5075175;28;20258;-70
2022/06/14 10:58:19;;;;;;;;;;;23.00;96.20;;;;;;5074053;28;19921;-69
2022/06/14 11:00:50;;;;;;;;;;;23.10;95.80;;;;;;5071452;28;19952;-68
2022/06/14 11:03:26;;;;;;;;;;;23.20;96.10;;;;;;5078009;28;20212;-69
2022/06/14 11:06:03;;;;;;;;;;;23.30;96.50;;;;;;5083340;28;19920;-69
2022/06/14 11:08:38;;;;;;;;;;;23.50;95.60;;;;;;5070918;28;19952;-69
2022/06/14 11:11:13;;;;;;;;;;;23.60;94.70;;;;;;5064555;28;19959;-69
2022/06/14 11:13:45;;;;;;;;;;;23.60;94.90;;;;;;5076417;28;19951;-69
2022/06/14 11:16:20;;;;;;;;;;;23.50;94.90;;;;;;5071954;28;20160;-69
2022/06/14 11:19:04;;;;;;;;;;;23.50;94.30;;;;;;5084269;28;19971;-68
2022/06/14 11:21:45;;;;;;;;;;;23.70;93.60;;;;;;5082679;28;19924;-68
2022/06/14 11:24:15;;;;;;;;;;;23.70;93.20;;;;;;5082466;28;19980;-68
2022/06/14 11:26:47;;;;;;;;;;;23.70;93.20;;;;;;5075465;28;19924;-69
2022/06/14 11:29:21;;;;;;;;;;;23.70;94.10;;;;;;5077339;28;19920;-68
2022/06/14 11:31:51;;;;;;;;;;;23.80;93.10;;;;;;5081234;28;20451;-69
2022/06/14 11:34:27;;;;;;;;;;;24.00;92.90;;;;;;5076407;28;19957;-69
2022/06/14 11:37:02;;;;;;;;;;;24.20;93.90;;;;;;5082186;28;19920;-67
2022/06/14 11:39:33;;;;;;;;;;;24.50;92.90;;;;;;5066086;28;19943;-66
2022/06/14 11:42:02;;;;;;;;;;;24.50;91.00;;;;;;5068307;28;20166;-67
2022/06/14 11:44:43;;;;;;;;;;;24.60;90.90;;;;;;5079246;28;19927;-67
2022/06/14 11:47:17;;;;;;;;;;;24.50;90.00;;;;;;5082727;28;19920;-69
2022/06/14 11:49:46;;;;;;;;;;;24.30;90.30;;;;;;5078208;28;19952;-69
2022/06/14 11:52:21;;;;;;;;;;;24.20;88.80;;;;;;5065226;28;20141;-69
2022/06/14 11:54:52;;;;;;;;;;;24.20;90.50;;;;;;5083501;28;20224;-68
2022/06/14 11:57:25;;;;;;;;;;;24.50;91.00;;;;;;5080613;28;20180;-67
2022/06/14 12:00:02;;;;;;;;;;;24.80;90.00;;;;;;5068846;28;19920;-67
2022/06/14 12:02:40;;;;;;;;;;;25.10;88.00;;;;;;5078723;28;19921;-67
2022/06/14 12:05:09;;;;;;;;;;;25.30;89.00;;;;;;5063597;28;19921;-67
2022/06/14 12:07:37;;;;;;;;;;;25.40;85.80;;;;;;5063695;28;19952;-67
2022/06/14 12:10:25;;;;;;;;;;;25.60;88.70;;;;;;5081184;28;19948;-67
2022/06/14 12:13:00;;;;;;;;;;;25.90;88.00;;;;;;5079510;28;19967;-68
2022/06/14 12:15:32;;;;;;;;;;;26.10;84.60;;;;;;5068532;28;19921;-68
2022/06/14 12:18:02;;;;;;;;;;;26.30;85.30;;;;;;5075705;28;19975;-67
2022/06/14 12:20:31;;;;;;;;;;;26.40;83.90;;;;;;5075727;28;19921;-67
2022/06/14 12:23:01;;;;;;;;;;;26.50;83.00;;;;;;5065690;28;20170;-68
2022/06/14 12:28:18;;;;;;;;;;;26.20;81.00;;;;;;5071096;28;19940;-69
2022/06/14 12:30:46;;;;;;;;;;;26.30;80.60;;;;;;5071486;28;19948;-68
2022/06/14 12:33:18;;;;;;;;;;;26.40;81.60;;;;;;5082484;28;19920;-67
2022/06/14 12:35:50;;;;;;;;;;;26.60;81.00;;;;;;5081805;28;19921;-67
2022/06/14 12:38:18;;;;;;;;;;;26.80;82.00;;;;;;5073060;28;19988;-69
2022/06/14 12:40:48;;;;;;;;;;;27.10;81.80;;;;;;5083536;28;19920;-67
2022/06/14 12:43:18;;;;;;;;;;;27.30;80.20;;;;;;5077566;28;19948;-67
2022/06/14 12:45:46;;;;;;;;;;;27.40;77.50;;;;;;5062496;28;20227;-67
2022/06/14 12:48:24;;;;;;;;;;;27.40;78.40;;;;;;5073518;28;19928;-66
2022/06/14 12:50:52;;;;;;;;;;;27.40;78.00;;;;;;5074667;28;20008;-67
2022/06/14 12:53:23;;;;;;;;;;;27.60;76.30;;;;;;5079158;28;20157;-67
2022/06/14 12:55:54;;;;;;;;;;;27.60;76.50;;;;;;5072333;28;19920;-67
2022/06/14 12:58:29;;;;;;;;;;;27.60;75.20;;;;;;5079467;28;19958;-67
2022/06/14 13:00:59;;;;;;;;;;;27.60;75.20;;;;;;5075117;28;19928;-67
2022/06/14 13:03:31;;;;;;;;;;;27.80;75.00;;;;;;5081544;28;20227;-66
2022/06/14 13:05:59;;;;;;;;;;;27.70;73.50;;;;;;5070817;28;20271;-67
2022/06/14 13:08:29;;;;;;;;;;;27.90;75.90;;;;;;5076734;28;19956;-68
2022/06/14 13:11:01;;;;;;;;;;;28.00;72.00;;;;;;5082544;28;20195;-67
2022/06/14 13:13:38;;;;;;;;;;;27.90;74.60;;;;;;5082431;28;19956;-67
2022/06/14 13:16:06;;;;;;;;;;;28.00;72.80;;;;;;5073033;28;19944;-68
2022/06/14 13:18:43;;;;;;;;;;;28.20;73.50;;;;;;5081865;28;19967;-67
2022/06/14 13:21:12;;;;;;;;;;;28.40;70.20;;;;;;5077931;22;21129;-72
2022/06/14 13:23:44;;;;;;;;;;;28.60;72.40;;;;;;5062299;28;19980;-71
2022/06/14 13:26:33;;;;;;;;;;;28.70;71.20;;;;;;5061994;28;19927;-71
2022/06/14 13:29:15;;;;;;;;;;;28.70;69.60;;;;;;5058247;28;19997;-71
2022/06/14 13:31:56;;;;;;;;;;;28.80;68.60;;;;;;5050681;28;19952;-71
2022/06/14 13:34:32;;;;;;;;;;;29.10;69.10;;;;;;5054714;28;19962;-71
2022/06/14 13:37:06;;;;;;;;;;;29.30;68.70;;;;;;5065018;28;19920;-71
2022/06/14 13:39:34;;;;;;;;;;;29.40;68.70;;;;;;5066229;28;19952;-71
2022/06/14 13:42:03;;;;;;;;;;;29.30;67.90;;;;;;5065920;28;19952;-71
2022/06/14 13:44:35;;;;;;;;;;;29.00;67.30;;;;;;5063958;28;20124;-70
2022/06/14 13:47:03;;;;;;;;;;;29.00;67.70;;;;;;5060884;28;19921;-71
2022/06/14 13:49:32;;;;;;;;;;;29.00;68.00;;;;;;5068229;28;19924;-71
2022/06/14 13:52:01;;;;;;;;;;;29.20;67.20;;;;;;5075739;28;19952;-72
2022/06/14 13:54:31;;;;;;;;;;;29.40;67.60;;;;;;5075346;28;19976;-70
2022/06/14 13:57:11;;;;;;;;;;;29.60;67.80;;;;;;5074963;28;19927;-70
2022/06/14 13:59:40;;;;;;;;;;;29.70;68.50;;;;;;5077029;28;19981;-71
2022/06/14 14:02:14;;;;;;;;;;;29.70;67.90;;;;;;5083910;28;19951;-70
2022/06/14 14:04:47;;;;;;;;;;;29.70;67.10;;;;;;5087340;28;19960;-72
2022/06/14 14:07:15;;;;;;;;;;;29.70;67.90;;;;;;5075389;28;19979;-71
2022/06/14 14:09:51;;;;;;;;;;;29.70;66.70;;;;;;5066657;28;19940;-72
2022/06/14 14:12:20;;;;;;;;;;;29.90;69.10;;;;;;5070689;28;19956;-72
2022/06/14 14:14:52;;;;;;;;;;;30.00;63.80;;;;;;5065946;28;19921;-72
2022/06/14 14:17:23;;;;;;;;;;;30.00;65.30;;;;;;5065828;28;20015;-71
2022/06/14 14:19:56;;;;;;;;;;;30.30;65.90;;;;;;5065942;28;19956;-72
2022/06/14 14:22:29;;;;;;;;;;;30.10;65.00;;;;;;5065956;28;19921;-70
2022/06/14 14:24:57;;;;;;;;;;;30.40;65.90;;;;;;5066078;28;19951;-69
2022/06/14 14:27:27;;;;;;;;;;;30.50;66.70;;;;;;5057476;28;19956;-70
2022/06/14 14:29:55;;;;;;;;;;;30.70;65.10;;;;;;5065454;28;20168;-69
2022/06/14 14:32:26;;;;;;;;;;;30.70;62.20;;;;;;5064806;28;19948;-69
2022/06/14 14:34:57;;;;;;;;;;;30.80;63.40;;;;;;5057307;28;19928;-70
2022/06/14 14:37:27;;;;;;;;;;;30.80;63.70;;;;;;5065703;28;19952;-70
2022/06/14 14:40:06;;;;;;;;;;;30.80;67.00;;;;;;5065768;28;20179;-71
2022/06/14 14:43:00;;;;;;;;;;;30.70;63.30;;;;;;5065609;28;19929;-71
2022/06/14 14:45:31;;;;;;;;;;;30.70;63.70;;;;;;5028724;28;20148;-71
2022/06/14 14:47:59;;;;;;;;;;;30.60;62.70;;;;;;5065546;28;19991;-71
2022/06/14 14:50:32;;;;;;;;;;;30.70;63.70;;;;;;5065214;28;19983;-70
2022/06/14 14:53:02;;;;;;;;;;;30.80;65.30;;;;;;5065321;28;19928;-71